Los Posos, Valles Caldera, New Mexico Weather observations

Data are for 10 minute period ending at time listed.
 Day   Time   Solar   Ave.   Ave.  Ave.  Vector  Max.   Baro.   Total    
  of    of     Rad.   Air    Rel.  Wind   Wind   Wind  Press.  Precip.   
Year   Day            Temp.  Hum.  Speed  Dir.   Gust                    
2016   (MST)  Kw/m2    F      %     mph   deg.    mph    mb.     in.     
-------------------------------------------------------------------------
 270   12:30   0.81   60.1    35    5.2   136    10.2   99999.0    0.00 
 270   12:40   0.81   59.3    35    4.0   284     7.8   99999.0    0.00 
 270   12:50   0.83   59.7    36    4.6   231    11.3   99999.0    0.00 
 270   13:00   0.84   60.0    35    4.8   132    11.3   99999.0    0.00 
 270   13:10   0.80   60.7    33    4.6   136    11.3   99999.0    0.00 
 270   13:20   0.84   61.7    32    6.8    88    10.2   99999.0    0.00 
 270   13:30   0.79   62.9    30    6.8    79    10.8   99999.0    0.00 
 270   13:40   0.67   61.6    31    6.8    84    10.2   99999.0    0.00 
 270   13:50   0.55   61.3    32    6.4    83     9.0   99999.0    0.00 
 270   14:00   0.66   63.0    30    4.8    33     9.6   99999.0    0.00 
 270   14:10   0.26   60.9    32    3.7   107     7.2   99999.0    0.00 
 270   14:20   0.24   57.6    37    4.2   159     7.8   99999.0    0.00 
 270   14:30   0.46   57.6    38    4.8   162    10.2   99999.0    0.00 
 270   14:40   0.33   58.3    37    3.8   138     6.6   99999.0    0.00 
 270   14:50   0.44   57.6    38    5.4   166     9.6   99999.0    0.00 
 270   15:00   0.21   56.2    40    5.7   191    10.8   99999.0    0.00 
 270   15:10   0.29   55.4    42    5.1   187     9.0   99999.0    0.00 
 270   15:20   0.34   55.9    41    5.4   178    10.2   99999.0    0.00 
 270   15:30   0.46   57.2    38    5.6   190     9.6   99999.0    0.00 
 270   15:40   0.29   56.5    39    5.0   196     9.6   99999.0    0.00 
 270   15:50   0.48   57.5    37    5.7   189     9.0   99999.0    0.00 
 270   16:00   0.46   59.0    34    4.9   193     9.0   99999.0    0.00 
 270   16:10   0.37   58.7    34    5.9   195    10.2   99999.0    0.00 
 270   16:20   0.32   58.7    34    5.0   203     9.6   99999.0    0.00 
 270   16:30   0.23   57.7    35    4.4   193     7.2   99999.0    0.00 
 270   16:40   0.07   55.8    38    4.7   194     9.6   99999.0    0.00 
 270   16:50   0.13   53.9    40    5.1   191     9.0   99999.0    0.00 
 270   17:00   0.18   55.4    36    4.5   205     9.0   99999.0    0.00 
 270   17:10   0.15   55.7    35    4.0   196     9.0   99999.0    0.00 
 270   17:20   0.11   54.4    37    4.7   197     8.4   99999.0    0.00 
 270   17:30   0.02   51.3    42    5.0   202     9.0   99999.0    0.00 
 270   17:40   0.01   49.7    45    4.2   206     8.4   99999.0    0.00 
 270   17:50   0.01   49.1    46    4.8   194     7.8   99999.0    0.00 
 270   18:00   0.00   48.5    47    4.6   175     7.2   99999.0    0.00 
 270   18:10   0.00   47.9    48    3.6   181     6.0   99999.0    0.00 
 270   18:20   0.00   46.5    51    2.3   135     3.6   99999.0    0.00 
 270   18:30   0.00   43.7    57    0.9    17     1.8   99999.0    0.00 
 270   18:40   0.00   40.3    67    2.2   302     3.6   99999.0    0.00 
 270   18:50   0.00   39.3    70    1.2   227     3.6   99999.0    0.00 
 270   19:00   0.00   38.3    71    0.9   247     3.6   99999.0    0.00 
 270   19:10   0.00   37.9    71    1.0   203     3.0   99999.0    0.00 
 270   19:20   0.00   37.2    73    0.1   278     1.2   99999.0    0.00 
 270   19:30   0.00   37.0    72    0.2   348     3.0   99999.0    0.00 
 270   19:40   0.00   35.6    76    0.4   283     2.4   99999.0    0.00 
 270   19:50   0.00   34.7    77    2.6   247     4.2   99999.0    0.00 
 270   20:00   0.00   34.3    78    1.5   279     3.6   99999.0    0.00 
 270   20:10   0.00   34.4    78    1.7   258     3.6   99999.0    0.00 
 270   20:20   0.00   34.2    78    1.9   293     3.0   99999.0    0.00 
 270   20:30   0.00   33.7    80    1.6   283     3.0   99999.0    0.00 
 270   20:40   0.00   33.1    80    1.2   227     3.6   99999.0    0.00 
 270   20:50   0.00   33.0    81    0.0   273     1.2   99999.0    0.00 
 270   21:00   0.00   33.1    81    0.3   227     4.2   99999.0    0.00 
 270   21:10   0.00   33.3    79    0.0     0     0.0   99999.0    0.00 
 270   21:20   0.00   32.5    82    0.0     0     0.0   99999.0    0.00 
 270   21:30   0.00   32.4    81    0.2   245     3.0   99999.0    0.00 
 270   21:40   0.00   32.0    82    0.0   287     1.2   99999.0    0.00 
 270   21:50   0.00   32.5    81    0.0     0     0.0   99999.0    0.00 
 270   22:00   0.00   31.9    82    0.0     0     0.0   99999.0    0.00 
 270   22:10   0.00   31.4    83    0.0     0     0.0   99999.0    0.00 
 270   22:20   0.00   31.0    84    0.0     0     0.0   99999.0    0.00 
 270   22:30   0.00   30.9    85    0.0     0     0.0   99999.0    0.00 
 270   22:40   0.00   30.8    85    0.0     0     0.0   99999.0    0.00 
 270   22:50   0.00   30.6    86    0.0     0     0.0   99999.0    0.00 
 270   23:00   0.00   30.5    85    0.0     0     0.0   99999.0    0.00 
 270   23:10   0.00   29.9    86    0.0     0     0.0   99999.0    0.00 
 270   23:20   0.00   29.4    88    0.0     0     0.0   99999.0    0.00 
 270   23:30   0.00   29.5    88    0.0     0     0.0   99999.0    0.00 
 270   23:40   0.00   29.2    88    0.0     0     0.0   99999.0    0.00 
 270   23:50   0.00   29.4    88    0.0     0     0.0   99999.0    0.00 
 271    0:00   0.00   29.1    87    0.0     0     0.0   99999.0    0.00 
 271    0:10   0.00   28.7    88    0.0     0     0.0   99999.0    0.00 
 271    0:20   0.00   28.8    88    0.0     0     0.0   99999.0    0.00 
 271    0:30   0.00   28.5    89    0.0     0     0.0   99999.0    0.00 
 271    0:40   0.00   28.5    89    0.0     0     0.0   99999.0    0.00 
 271    0:50   0.00   28.4    89    0.0     0     0.0   99999.0    0.00 
 271    1:00   0.00   29.0    89    0.0     0     0.0   99999.0    0.00 
 271    1:10   0.00   28.8    88    0.0     0     0.0   99999.0    0.00 
 271    1:20   0.00   28.0    89    0.0     0     0.0   99999.0    0.00 
 271    1:30   0.00   28.0    89    1.0   246     3.0   99999.0    0.00 
 271    1:40   0.00   27.9    90    0.0     0     0.0   99999.0    0.00 
 271    1:50   0.00   27.6    90    0.0     0     0.0   99999.0    0.00 
 271    2:00   0.00   27.9    91    0.0     0     0.0   99999.0    0.00 
 271    2:10   0.00   28.6    91    0.0     0     0.0   99999.0    0.00 
 271    2:20   0.00   28.5    89    0.0     0     0.0   99999.0    0.00 
 271    2:30   0.00   28.1    90    0.0     0     0.0   99999.0    0.00 
 271    2:40   0.00   27.8    90    0.0     0     0.0   99999.0    0.00 
 271    2:50   0.00   27.7    90    0.8   234     3.0   99999.0    0.00 
 271    3:00   0.00   27.5    89    1.4   233     3.6   99999.0    0.00 
 271    3:10   0.00   27.6    91    0.0     0     0.0   99999.0    0.00 
 271    3:20   0.00   27.0    91    0.0     0     0.0   99999.0    0.00 
 271    3:30   0.00   27.3    93    0.0     0     0.0   99999.0    0.00 
 271    3:40   0.00   27.4    92    0.0     0     0.0   99999.0    0.00 
 271    3:50   0.00   26.4    91    0.0     0     0.0   99999.0    0.00 
 271    4:00   0.00   26.0    93    1.1   256     3.6   99999.0    0.00 
 271    4:10   0.00   26.8    93    0.9   249     3.0   99999.0    0.00 
 271    4:20   0.00   26.9    92    0.2   246     1.8   99999.0    0.00 
 271    4:30   0.00   26.3    92    0.0     0     0.0   99999.0    0.00 
 271    4:40   0.00   27.0    93    0.0     0     0.0   99999.0    0.00 
 271    4:50   0.00   27.5    92    0.2   271     2.4   99999.0    0.00 
 271    5:00   0.00   28.0    92    0.0     0     0.0   99999.0    0.00 
 271    5:10   0.00   27.1    91    0.2   238     2.4   99999.0    0.00 
 271    5:20   0.00   27.0    92    0.7   246     3.0   99999.0    0.00 
 271    5:30   0.00   27.3    92    0.0     0     0.0   99999.0    0.00 
 271    5:40   0.00   27.4    92    0.0   206     1.8   99999.0    0.00 
 271    5:50   0.00   27.7    92    0.2   218     3.0   99999.0    0.00 
 271    6:00   0.00   27.6    92    1.3   247     3.6   99999.0    0.00 
 271    6:10   0.01   27.7    92    0.9   241     3.6   99999.0    0.00 
 271    6:20   0.01   28.2    91    0.0   225     1.8   99999.0    0.00 
 271    6:30   0.01   29.1    91    0.0     0     0.0   99999.0    0.00 
 271    6:40   0.02   28.8    89    0.0     0     0.0   99999.0    0.00 
 271    6:50   0.14   29.1    90    1.4   234     3.6   99999.0    0.00 
 271    7:00   0.18   33.8    86    0.0   239     1.2   99999.0    0.00 
 271    7:10   0.21   38.7    77    0.1     0     1.8   99999.0    0.00 
 271    7:20   0.24   43.4    70    0.2    68     3.0   99999.0    0.00 
 271    7:30   0.27   47.7    60    0.2    59     2.4   99999.0    0.00 
 271    7:40   0.30   48.9    60    0.0     0     0.0   99999.0    0.00 
 271    7:50   0.34   51.2    61    0.0     0     0.0   99999.0    0.00 
 271    8:00   0.37   54.7    47    1.4   143     4.8   99999.0    0.00 
 271    8:10   0.40   53.8    42    1.9   166     4.2   99999.0    0.00 
 271    8:20   0.43   53.6    41    2.7   153     5.4   99999.0    0.00 
 271    8:30   0.46   54.4    40    2.6   163     6.0   99999.0    0.00 
 271    8:40   0.49   54.5    36    5.7   173     7.8   99999.0    0.00 
 271    8:50   0.52   55.0    35    5.6   176    10.2   99999.0    0.00 
 271    9:00   0.55   56.5    34    3.5   201     6.6   99999.0    0.00 
 271    9:10   0.58   56.9    32    4.7   193     9.0   99999.0    0.00 
 271    9:20   0.60   56.6    32    5.3   212    10.2   99999.0    0.00 
 271    9:30   0.63   57.3    33    4.9   200    10.2   99999.0    0.00 
 271    9:40   0.65   58.2    33    4.4   189    10.8   99999.0    0.00 
 271    9:50   0.68   58.4    32    5.5   196    11.9   99999.0    0.00 
 271   10:00   0.70   58.2    33    5.9   183    12.5   99999.0    0.00 
 271   10:10   0.71   58.7    32    5.2   142     9.0   99999.0    0.00 
 271   10:20   0.73   59.4    31    5.3   200     9.6   99999.0    0.00 
 271   10:30   0.75   58.9    31    4.9   158     8.4   99999.0    0.00 
 271   10:40   0.77   60.1    29    4.2   292     6.6   99999.0    0.00 
 271   10:50   0.78   61.4    28    3.1   284     7.2   99999.0    0.00 
 271   11:00   0.79   61.3    28    3.9   192     9.6   99999.0    0.00 
 271   11:10   0.80   60.6    27    6.1   175     9.0   99999.0    0.00 
 271   11:20   0.81   60.6    28    4.4   232     9.0   99999.0    0.00 
 271   11:30   0.82   60.9    27    4.3   179     9.0   99999.0    0.00 
 271   11:40   0.82   61.7    26    4.0   119     9.0   99999.0    0.00 
 271   11:50   0.83   62.0    26    4.9   130     9.0   99999.0    0.00 
 271   12:00   0.84   61.7    26    4.4   179     9.0   99999.0    0.00 
 271   12:10   0.67   63.0    25    4.8   204     8.4   99999.0    0.00 
 271   12:20   0.87   62.4    25    3.9   148     7.2   99999.0    0.00 

Return to Los Posos, Valles Caldera graphs page.


Western Regional Climate Center,wrcc@dri.edu